sensor_id;sensor_type;location;lat;lon;timestamp;pressure;altitude;pressure_sealevel;temperature;humidity
39891;BME280;25564;53.312;9.790;2023-01-29T00:00:00;102013.56;;;3.03;98.23
39891;BME280;25564;53.312;9.790;2023-01-29T00:02:32;101995.84;;;2.96;97.77
39891;BME280;25564;53.312;9.790;2023-01-29T00:05:04;102016.19;;;3.03;97.90
39891;BME280;25564;53.312;9.790;2023-01-29T00:07:56;102015.13;;;2.98;97.74
39891;BME280;25564;53.312;9.790;2023-01-29T00:10:28;102007.78;;;2.88;97.96
39891;BME280;25564;53.312;9.790;2023-01-29T00:12:59;102019.47;;;2.98;97.40
39891;BME280;25564;53.312;9.790;2023-01-29T00:15:30;101997.19;;;2.85;98.24
39891;BME280;25564;53.312;9.790;2023-01-29T00:18:02;102018.81;;;3.03;98.25
39891;BME280;25564;53.312;9.790;2023-01-29T00:20:33;101998.31;;;2.91;97.70
39891;BME280;25564;53.312;9.790;2023-01-29T00:23:04;101992.16;;;2.91;97.38
39891;BME280;25564;53.312;9.790;2023-01-29T00:25:36;102000.25;;;2.97;97.73
39891;BME280;25564;53.312;9.790;2023-01-29T00:28:07;101986.19;;;2.95;98.43
39891;BME280;25564;53.312;9.790;2023-01-29T00:30:39;101995.03;;;2.99;98.19
39891;BME280;25564;53.312;9.790;2023-01-29T00:33:11;101970.25;;;2.89;98.08
39891;BME280;25564;53.312;9.790;2023-01-29T00:35:43;101961.38;;;2.85;97.84
39891;BME280;25564;53.312;9.790;2023-01-29T00:38:14;101974.91;;;2.98;98.03
39891;BME280;25564;53.312;9.790;2023-01-29T00:40:46;101967.94;;;2.98;98.18
39891;BME280;25564;53.312;9.790;2023-01-29T00:43:36;101962.53;;;2.93;98.60
39891;BME280;25564;53.312;9.790;2023-01-29T00:46:26;101957.34;;;2.95;98.80
39891;BME280;25564;53.312;9.790;2023-01-29T00:48:57;101947.53;;;2.89;98.09
39891;BME280;25564;53.312;9.790;2023-01-29T00:51:31;101938.78;;;2.89;98.83
39891;BME280;25564;53.312;9.790;2023-01-29T00:54:03;101950.63;;;3.03;98.10
39891;BME280;25564;53.312;9.790;2023-01-29T00:56:36;101953.19;;;3.02;98.37
39891;BME280;25564;53.312;9.790;2023-01-29T00:59:08;101962.69;;;2.98;98.38
39891;BME280;25564;53.312;9.790;2023-01-29T01:01:39;101956.50;;;2.96;98.66
39891;BME280;25564;53.312;9.790;2023-01-29T01:04:31;101962.75;;;3.00;98.24
39891;BME280;25564;53.312;9.790;2023-01-29T01:07:05;101947.50;;;2.88;98.09
39891;BME280;25564;53.312;9.790;2023-01-29T01:09:37;101955.47;;;2.91;98.49
39891;BME280;25564;53.312;9.790;2023-01-29T01:12:27;101946.56;;;2.86;98.36
39891;BME280;25564;53.312;9.790;2023-01-29T01:14:59;101973.06;;;2.95;98.13
39891;BME280;25564;53.312;9.790;2023-01-29T01:17:30;101943.66;;;2.78;98.57
39891;BME280;25564;53.312;9.790;2023-01-29T01:20:02;101980.88;;;2.93;98.25
39891;BME280;25564;53.312;9.790;2023-01-29T01:22:33;101979.78;;;2.87;98.25
39891;BME280;25564;53.312;9.790;2023-01-29T01:25:06;101992.38;;;2.97;97.70
39891;BME280;25564;53.312;9.790;2023-01-29T01:27:37;101996.69;;;2.95;98.49
39891;BME280;25564;53.312;9.790;2023-01-29T01:30:13;101995.88;;;2.98;98.30
39891;BME280;25564;53.312;9.790;2023-01-29T01:32:45;101968.38;;;2.85;98.13
39891;BME280;25564;53.312;9.790;2023-01-29T01:35:16;101974.59;;;2.88;98.25
39891;BME280;25564;53.312;9.790;2023-01-29T01:37:48;101973.75;;;2.89;97.79
39891;BME280;25564;53.312;9.790;2023-01-29T01:40:21;101962.34;;;2.87;97.92
39891;BME280;25564;53.312;9.790;2023-01-29T01:42:55;101993.25;;;2.98;97.97
39891;BME280;25564;53.312;9.790;2023-01-29T01:45:28;101985.44;;;2.99;98.54
39891;BME280;25564;53.312;9.790;2023-01-29T01:48:03;101965.84;;;2.88;98.21
39891;BME280;25564;53.312;9.790;2023-01-29T01:50:52;101984.50;;;2.97;97.97
39891;BME280;25564;53.312;9.790;2023-01-29T01:54:01;101951.53;;;2.78;98.55
39891;BME280;25564;53.312;9.790;2023-01-29T01:56:39;101971.28;;;2.94;97.94
39891;BME280;25564;53.312;9.790;2023-01-29T01:59:16;101966.94;;;2.94;98.28
39891;BME280;25564;53.312;9.790;2023-01-29T02:01:50;101960.56;;;2.86;98.56
39891;BME280;25564;53.312;9.790;2023-01-29T02:04:25;101960.41;;;2.82;98.66
39891;BME280;25564;53.312;9.790;2023-01-29T02:07:15;101976.97;;;2.81;98.61
39891;BME280;25564;53.312;9.790;2023-01-29T02:10:11;101966.38;;;2.78;98.78
39891;BME280;25564;53.312;9.790;2023-01-29T02:12:44;101963.13;;;2.85;98.25
39891;BME280;25564;53.312;9.790;2023-01-29T02:15:16;101971.19;;;2.91;98.67
39891;BME280;25564;53.312;9.790;2023-01-29T02:17:47;101965.09;;;2.92;98.78
39891;BME280;25564;53.312;9.790;2023-01-29T02:20:23;101966.16;;;2.97;98.46
39891;BME280;25564;53.312;9.790;2023-01-29T02:26:08;101957.25;;;2.92;98.13
39891;BME280;25564;53.312;9.790;2023-01-29T02:31:28;101934.97;;;2.79;98.59
39891;BME280;25564;53.312;9.790;2023-01-29T02:34:27;101958.19;;;2.94;98.70
39891;BME280;25564;53.312;9.790;2023-01-29T02:37:08;101959.06;;;2.94;97.96
39891;BME280;25564;53.312;9.790;2023-01-29T02:39:50;101935.13;;;2.84;98.56
39891;BME280;25564;53.312;9.790;2023-01-29T02:42:33;101952.06;;;2.93;98.28
39891;BME280;25564;53.312;9.790;2023-01-29T02:45:11;101953.69;;;2.90;98.37
39891;BME280;25564;53.312;9.790;2023-01-29T02:47:59;101942.25;;;2.88;98.44
39891;BME280;25564;53.312;9.790;2023-01-29T02:50:36;101944.78;;;2.85;98.83
39891;BME280;25564;53.312;9.790;2023-01-29T02:53:18;101934.19;;;2.82;99.39
39891;BME280;25564;53.312;9.790;2023-01-29T02:56:08;101923.53;;;2.77;99.12
39891;BME280;25564;53.312;9.790;2023-01-29T02:58:51;101911.13;;;2.72;98.60
39891;BME280;25564;53.312;9.790;2023-01-29T03:01:26;101925.38;;;2.80;98.62
39891;BME280;25564;53.312;9.790;2023-01-29T03:04:06;101920.13;;;2.80;98.90
39891;BME280;25564;53.312;9.790;2023-01-29T03:06:47;101927.06;;;2.78;98.38
39891;BME280;25564;53.312;9.790;2023-01-29T03:09:33;101918.16;;;2.73;99.40
39891;BME280;25564;53.312;9.790;2023-01-29T03:12:14;101915.53;;;2.73;98.92
39891;BME280;25564;53.312;9.790;2023-01-29T03:15:06;101903.31;;;2.73;99.42
39891;BME280;25564;53.312;9.790;2023-01-29T03:17:53;101875.81;;;2.60;99.32
39891;BME280;25564;53.312;9.790;2023-01-29T03:20:29;101886.34;;;2.62;99.06
39891;BME280;25564;53.312;9.790;2023-01-29T03:23:08;101891.78;;;2.68;99.27
39891;BME280;25564;53.312;9.790;2023-01-29T03:25:42;101883.94;;;2.68;100.00
39891;BME280;25564;53.312;9.790;2023-01-29T03:28:33;101887.44;;;2.69;99.72
39891;BME280;25564;53.312;9.790;2023-01-29T03:31:25;101870.63;;;2.62;99.18
39891;BME280;25564;53.312;9.790;2023-01-29T03:34:19;101882.94;;;2.65;99.58
39891;BME280;25564;53.312;9.790;2023-01-29T03:37:02;101860.94;;;2.59;99.25
39891;BME280;25564;53.312;9.790;2023-01-29T03:39:37;101875.38;;;2.74;99.41
39891;BME280;25564;53.312;9.790;2023-01-29T03:42:26;101841.78;;;2.62;100.00
39891;BME280;25564;53.312;9.790;2023-01-29T03:48:07;101863.16;;;2.74;99.87
39891;BME280;25564;53.312;9.790;2023-01-29T03:56:23;101864.94;;;2.75;99.75
39891;BME280;25564;53.312;9.790;2023-01-29T03:59:48;101850.66;;;2.66;99.91
39891;BME280;25564;53.312;9.790;2023-01-29T04:02:01;101878.09;;;2.77;99.54
39891;BME280;25564;53.312;9.790;2023-01-29T04:04:40;101860.50;;;2.73;99.53
39891;BME280;25564;53.312;9.790;2023-01-29T04:07:16;101836.81;;;2.70;99.17
39891;BME280;25564;53.312;9.790;2023-01-29T04:09:57;101856.38;;;2.81;99.69
39891;BME280;25564;53.312;9.790;2023-01-29T04:12:36;101857.28;;;2.81;99.73
39891;BME280;25564;53.312;9.790;2023-01-29T04:15:12;101847.63;;;2.80;99.71
39891;BME280;25564;53.312;9.790;2023-01-29T04:17:49;101845.84;;;2.79;99.03
39891;BME280;25564;53.312;9.790;2023-01-29T04:20:21;101836.81;;;2.70;100.00
39891;BME280;25564;53.312;9.790;2023-01-29T04:22:53;101826.22;;;2.67;99.61
39891;BME280;25564;53.312;9.790;2023-01-29T04:25:28;101841.41;;;2.77;99.38
39891;BME280;25564;53.312;9.790;2023-01-29T04:28:22;101839.72;;;2.79;99.50
39891;BME280;25564;53.312;9.790;2023-01-29T04:31:05;101822.91;;;2.72;99.94
39891;BME280;25564;53.312;9.790;2023-01-29T04:39:21;101822.91;;;2.72;99.30
39891;BME280;25564;53.312;9.790;2023-01-29T04:42:14;101826.16;;;2.65;99.83
39891;BME280;25564;53.312;9.790;2023-01-29T04:45:07;101818.13;;;2.59;99.34
39891;BME280;25564;53.312;9.790;2023-01-29T04:48:09;101833.16;;;2.65;99.69
39891;BME280;25564;53.312;9.790;2023-01-29T04:51:08;101844.41;;;2.62;100.00
39891;BME280;25564;53.312;9.790;2023-01-29T04:53:56;101853.06;;;2.59;100.00
39891;BME280;25564;53.312;9.790;2023-01-29T04:56:34;101859.28;;;2.63;100.00
39891;BME280;25564;53.312;9.790;2023-01-29T04:59:16;101855.75;;;2.61;99.89
39891;BME280;25564;53.312;9.790;2023-01-29T05:01:51;101859.50;;;2.69;99.18
39891;BME280;25564;53.312;9.790;2023-01-29T05:04:23;101866.47;;;2.69;99.33
39891;BME280;25564;53.312;9.790;2023-01-29T05:06:59;101854.69;;;2.56;99.78
39891;BME280;25564;53.312;9.790;2023-01-29T05:09:33;101865.31;;;2.60;99.22
39891;BME280;25564;53.312;9.790;2023-01-29T05:12:06;101819.25;;;2.40;99.76
39891;BME280;25564;53.312;9.790;2023-01-29T05:14:42;101831.69;;;2.47;99.94
39891;BME280;25564;53.312;9.790;2023-01-29T05:17:16;101847.63;;;2.53;100.00
39891;BME280;25564;53.312;9.790;2023-01-29T05:19:48;101826.25;;;2.41;99.52
39891;BME280;25564;53.312;9.790;2023-01-29T05:22:19;101836.25;;;2.53;100.00
39891;BME280;25564;53.312;9.790;2023-01-29T05:24:52;101842.47;;;2.56;99.26
39891;BME280;25564;53.312;9.790;2023-01-29T05:27:31;101823.09;;;2.51;99.89
39891;BME280;25564;53.312;9.790;2023-01-29T05:30:23;101814.25;;;2.48;99.84
39891;BME280;25564;53.312;9.790;2023-01-29T05:32:54;101804.81;;;2.53;100.00
39891;BME280;25564;53.312;9.790;2023-01-29T05:35:26;101789.69;;;2.44;99.28
39891;BME280;25564;53.312;9.790;2023-01-29T05:37:58;101820.31;;;2.47;99.55
39891;BME280;25564;53.312;9.790;2023-01-29T05:40:30;101832.78;;;2.54;98.96
39891;BME280;25564;53.312;9.790;2023-01-29T05:43:01;101830.06;;;2.51;99.41
39891;BME280;25564;53.312;9.790;2023-01-29T05:45:32;101822.16;;;2.49;99.19
39891;BME280;25564;53.312;9.790;2023-01-29T05:48:04;101794.63;;;2.35;99.00
39891;BME280;25564;53.312;9.790;2023-01-29T05:50:35;101814.88;;;2.41;99.04
39891;BME280;25564;53.312;9.790;2023-01-29T05:53:07;101780.97;;;2.18;99.05
39891;BME280;25564;53.312;9.790;2023-01-29T05:55:39;101793.13;;;2.16;99.82
39891;BME280;25564;53.312;9.790;2023-01-29T05:58:10;101790.59;;;2.19;99.28
39891;BME280;25564;53.312;9.790;2023-01-29T06:00:42;101780.66;;;2.09;99.25
39891;BME280;25564;53.312;9.790;2023-01-29T06:03:13;101801.84;;;2.17;99.42
39891;BME280;25564;53.312;9.790;2023-01-29T06:05:44;101815.91;;;2.19;99.14
39891;BME280;25564;53.312;9.790;2023-01-29T06:08:16;101829.50;;;2.34;98.61
39891;BME280;25564;53.312;9.790;2023-01-29T06:10:47;101815.31;;;2.27;99.07
39891;BME280;25564;53.312;9.790;2023-01-29T06:13:19;101839.34;;;2.41;99.03
39891;BME280;25564;53.312;9.790;2023-01-29T06:15:53;101847.31;;;2.44;99.69
39891;BME280;25564;53.312;9.790;2023-01-29T06:18:24;101844.84;;;2.49;99.46
39891;BME280;25564;53.312;9.790;2023-01-29T06:20:59;101812.28;;;2.41;99.34
39891;BME280;25564;53.312;9.790;2023-01-29T06:23:30;101823.84;;;2.47;99.35
39891;BME280;25564;53.312;9.790;2023-01-29T06:26:13;101809.16;;;2.52;99.12
39891;BME280;25564;53.312;9.790;2023-01-29T06:28:48;101812.72;;;2.54;99.14
39891;BME280;25564;53.312;9.790;2023-01-29T06:31:20;101813.75;;;2.59;98.95
39891;BME280;25564;53.312;9.790;2023-01-29T06:34:08;101774.75;;;2.42;99.46
39891;BME280;25564;53.312;9.790;2023-01-29T06:36:40;101789.34;;;2.60;99.45
39891;BME280;25564;53.312;9.790;2023-01-29T06:39:12;101795.63;;;2.66;99.04
39891;BME280;25564;53.312;9.790;2023-01-29T06:41:43;101776.88;;;2.53;98.96
39891;BME280;25564;53.312;9.790;2023-01-29T06:44:15;101798.97;;;2.61;99.40
39891;BME280;25564;53.312;9.790;2023-01-29T06:46:46;101805.81;;;2.56;99.77
39891;BME280;25564;53.312;9.790;2023-01-29T06:49:18;101782.03;;;2.50;99.43
39891;BME280;25564;53.312;9.790;2023-01-29T06:51:50;101790.19;;;2.59;98.98
39891;BME280;25564;53.312;9.790;2023-01-29T06:54:21;101787.50;;;2.58;99.40
39891;BME280;25564;53.312;9.790;2023-01-29T06:56:52;101775.06;;;2.51;98.83
39891;BME280;25564;53.312;9.790;2023-01-29T06:59:23;101748.41;;;2.37;98.76
39891;BME280;25564;53.312;9.790;2023-01-29T07:01:55;101735.06;;;2.29;99.60
39891;BME280;25564;53.312;9.790;2023-01-29T07:04:26;101750.78;;;2.29;98.92
39891;BME280;25564;53.312;9.790;2023-01-29T07:06:58;101751.41;;;2.22;99.21
39891;BME280;25564;53.312;9.790;2023-01-29T07:09:30;101744.34;;;2.20;98.94
39891;BME280;25564;53.312;9.790;2023-01-29T07:12:02;101731.06;;;2.14;99.26
39891;BME280;25564;53.312;9.790;2023-01-29T07:14:33;101721.22;;;2.05;99.59
39891;BME280;25564;53.312;9.790;2023-01-29T07:17:05;101736.81;;;2.02;99.58
39891;BME280;25564;53.312;9.790;2023-01-29T07:19:36;101734.94;;;1.98;98.98
39891;BME280;25564;53.312;9.790;2023-01-29T07:22:07;101758.03;;;2.11;99.58
39891;BME280;25564;53.312;9.790;2023-01-29T07:24:39;101747.19;;;1.99;99.42
39891;BME280;25564;53.312;9.790;2023-01-29T07:27:10;101732.94;;;1.91;99.56
39891;BME280;25564;53.312;9.790;2023-01-29T07:29:41;101722.47;;;1.91;99.43
39891;BME280;25564;53.312;9.790;2023-01-29T07:32:12;101736.75;;;2.01;99.79
39891;BME280;25564;53.312;9.790;2023-01-29T07:34:44;101735.94;;;2.02;99.20
39891;BME280;25564;53.312;9.790;2023-01-29T07:37:15;101768.72;;;2.17;99.30
39891;BME280;25564;53.312;9.790;2023-01-29T07:39:46;101743.09;;;2.07;99.53
39891;BME280;25564;53.312;9.790;2023-01-29T07:42:18;101727.97;;;1.99;99.18
39891;BME280;25564;53.312;9.790;2023-01-29T07:44:49;101765.59;;;2.29;99.55
39891;BME280;25564;53.312;9.790;2023-01-29T07:47:20;101761.34;;;2.33;99.68
39891;BME280;25564;53.312;9.790;2023-01-29T07:49:52;101746.44;;;2.30;99.40
39891;BME280;25564;53.312;9.790;2023-01-29T07:52:23;101757.34;;;2.44;99.08
39891;BME280;25564;53.312;9.790;2023-01-29T07:54:54;101756.81;;;2.54;99.64
39891;BME280;25564;53.312;9.790;2023-01-29T07:57:25;101753.53;;;2.61;99.69
39891;BME280;25564;53.312;9.790;2023-01-29T07:59:57;101747.50;;;2.63;99.01
39891;BME280;25564;53.312;9.790;2023-01-29T08:02:28;101748.53;;;2.69;99.25
39891;BME280;25564;53.312;9.790;2023-01-29T08:05:00;101711.28;;;2.50;99.92
39891;BME280;25564;53.312;9.790;2023-01-29T08:07:31;101736.47;;;2.74;99.22
39891;BME280;25564;53.312;9.790;2023-01-29T08:10:03;101739.50;;;2.87;99.89
39891;BME280;25564;53.312;9.790;2023-01-29T08:12:34;101748.41;;;2.92;99.23
39891;BME280;25564;53.312;9.790;2023-01-29T08:15:06;101731.88;;;2.95;100.00
39891;BME280;25564;53.312;9.790;2023-01-29T08:17:38;101730.31;;;3.02;99.68
39891;BME280;25564;53.312;9.790;2023-01-29T08:20:27;101721.63;;;3.03;99.35
39891;BME280;25564;53.312;9.790;2023-01-29T08:23:01;101720.81;;;3.05;99.88
39891;BME280;25564;53.312;9.790;2023-01-29T08:25:33;101711.94;;;3.00;99.92
39891;BME280;25564;53.312;9.790;2023-01-29T08:28:04;101732.38;;;3.13;99.26
39891;BME280;25564;53.312;9.790;2023-01-29T08:30:36;101705.94;;;3.04;99.35
39891;BME280;25564;53.312;9.790;2023-01-29T08:33:08;101724.59;;;3.16;100.00
39891;BME280;25564;53.312;9.790;2023-01-29T08:35:41;101722.03;;;3.18;100.00
39891;BME280;25564;53.312;9.790;2023-01-29T08:38:12;101699.94;;;3.08;99.71
39891;BME280;25564;53.312;9.790;2023-01-29T08:40:44;101691.22;;;3.09;100.00
39891;BME280;25564;53.312;9.790;2023-01-29T08:43:15;101719.63;;;3.25;99.65
39891;BME280;25564;53.312;9.790;2023-01-29T08:45:46;101724.09;;;3.29;100.00
39891;BME280;25564;53.312;9.790;2023-01-29T08:48:18;101720.75;;;3.35;100.00
39891;BME280;25564;53.312;9.790;2023-01-29T08:50:49;101711.00;;;3.29;99.82
39891;BME280;25564;53.312;9.790;2023-01-29T08:53:21;101668.56;;;3.13;99.27
39891;BME280;25564;53.312;9.790;2023-01-29T08:55:55;101698.13;;;3.39;99.68
39891;BME280;25564;53.312;9.790;2023-01-29T08:58:26;101694.56;;;3.37;99.74
39891;BME280;25564;53.312;9.790;2023-01-29T09:01:08;101716.69;;;3.46;99.99
39891;BME280;25564;53.312;9.790;2023-01-29T09:03:40;101705.34;;;3.47;99.79
39891;BME280;25564;53.312;9.790;2023-01-29T09:06:13;101711.66;;;3.54;99.65
39891;BME280;25564;53.312;9.790;2023-01-29T09:08:45;101713.47;;;3.56;100.00
39891;BME280;25564;53.312;9.790;2023-01-29T09:11:16;101658.47;;;3.28;100.00
39891;BME280;25564;53.312;9.790;2023-01-29T09:13:47;101703.72;;;3.51;100.00
39891;BME280;25564;53.312;9.790;2023-01-29T09:16:19;101703.84;;;3.55;100.00
39891;BME280;25564;53.312;9.790;2023-01-29T09:18:52;101724.19;;;3.64;100.00
39891;BME280;25564;53.312;9.790;2023-01-29T09:21:24;101721.56;;;3.64;100.00
39891;BME280;25564;53.312;9.790;2023-01-29T09:23:55;101722.50;;;3.66;100.00
39891;BME280;25564;53.312;9.790;2023-01-29T09:26:27;101701.44;;;3.65;100.00
39891;BME280;25564;53.312;9.790;2023-01-29T09:28:58;101659.94;;;3.50;100.00
39891;BME280;25564;53.312;9.790;2023-01-29T09:31:29;101717.88;;;3.90;100.00
39891;BME280;25564;53.312;9.790;2023-01-29T09:34:01;101727.69;;;3.98;100.00
39891;BME280;25564;53.312;9.790;2023-01-29T09:36:32;101719.69;;;3.93;100.00
39891;BME280;25564;53.312;9.790;2023-01-29T09:39:03;101719.72;;;3.94;100.00
39891;BME280;25564;53.312;9.790;2023-01-29T09:41:45;101700.34;;;3.89;100.00
39891;BME280;25564;53.312;9.790;2023-01-29T09:47:16;101696.88;;;3.90;100.00
39891;BME280;25564;53.312;9.790;2023-01-29T09:50:00;101687.09;;;3.85;100.00
39891;BME280;25564;53.312;9.790;2023-01-29T09:52:45;101703.00;;;3.91;100.00
39891;BME280;25564;53.312;9.790;2023-01-29T09:55:32;101697.72;;;3.89;100.00
39891;BME280;25564;53.312;9.790;2023-01-29T09:58:18;101685.59;;;3.94;100.00
39891;BME280;25564;53.312;9.790;2023-01-29T10:01:18;101683.16;;;4.02;100.00
39891;BME280;25564;53.312;9.790;2023-01-29T10:07:23;101670.91;;;4.03;100.00
39891;BME280;25564;53.312;9.790;2023-01-29T10:16:28;101661.56;;;4.14;100.00
39891;BME280;25564;53.312;9.790;2023-01-29T10:19:26;101661.59;;;4.17;100.00
39891;BME280;25564;53.312;9.790;2023-01-29T10:25:04;101638.03;;;4.20;100.00
39891;BME280;25564;53.312;9.790;2023-01-29T10:27:38;101631.91;;;4.21;100.00
39891;BME280;25564;53.312;9.790;2023-01-29T10:30:28;101631.25;;;4.30;100.00
39891;BME280;25564;53.312;9.790;2023-01-29T10:33:04;101642.63;;;4.30;100.00
39891;BME280;25564;53.312;9.790;2023-01-29T10:35:46;101630.44;;;4.32;100.00
39891;BME280;25564;53.312;9.790;2023-01-29T10:38:29;101600.47;;;4.24;100.00
39891;BME280;25564;53.312;9.790;2023-01-29T10:43:58;101624.78;;;4.54;100.00
39891;BME280;25564;53.312;9.790;2023-01-29T10:50:01;101548.94;;;4.31;100.00
39891;BME280;25564;53.312;9.790;2023-01-29T10:58:42;101579.59;;;4.72;100.00
39891;BME280;25564;53.312;9.790;2023-01-29T11:01:17;101589.22;;;4.72;100.00
39891;BME280;25564;53.312;9.790;2023-01-29T11:03:55;101566.25;;;4.62;100.00
39891;BME280;25564;53.312;9.790;2023-01-29T11:06:31;101548.81;;;4.67;100.00
39891;BME280;25564;53.312;9.790;2023-01-29T11:12:01;101567.25;;;4.68;100.00
39891;BME280;25564;53.312;9.790;2023-01-29T11:14:47;101546.75;;;4.52;100.00
39891;BME280;25564;53.312;9.790;2023-01-29T11:17:23;101570.72;;;4.67;100.00
39891;BME280;25564;53.312;9.790;2023-01-29T11:19:55;101573.28;;;4.63;100.00
39891;BME280;25564;53.312;9.790;2023-01-29T11:22:28;101562.63;;;4.56;100.00
39891;BME280;25564;53.312;9.790;2023-01-29T11:25:14;101578.72;;;4.72;100.00
39891;BME280;25564;53.312;9.790;2023-01-29T11:27:48;101572.63;;;4.74;100.00
39891;BME280;25564;53.312;9.790;2023-01-29T11:30:31;101574.41;;;4.75;100.00
39891;BME280;25564;53.312;9.790;2023-01-29T11:35:35;101567.31;;;4.71;100.00
39891;BME280;25564;53.312;9.790;2023-01-29T11:38:26;101567.38;;;4.74;100.00
39891;BME280;25564;53.312;9.790;2023-01-29T11:41:05;101535.69;;;4.68;100.00
39891;BME280;25564;53.312;9.790;2023-01-29T11:43:38;101548.06;;;4.72;100.00
39891;BME280;25564;53.312;9.790;2023-01-29T11:46:13;101530.50;;;4.71;100.00
39891;BME280;25564;53.312;9.790;2023-01-29T11:48:47;101528.97;;;4.82;100.00
39891;BME280;25564;53.312;9.790;2023-01-29T11:51:28;101524.72;;;4.90;100.00
39891;BME280;25564;53.312;9.790;2023-01-29T11:54:04;101526.41;;;4.87;100.00
39891;BME280;25564;53.312;9.790;2023-01-29T11:56:41;101515.91;;;4.87;100.00
39891;BME280;25564;53.312;9.790;2023-01-29T11:59:37;101506.19;;;4.83;100.00
39891;BME280;25564;53.312;9.790;2023-01-29T12:02:22;101478.81;;;4.72;100.00
39891;BME280;25564;53.312;9.790;2023-01-29T12:04:57;101499.28;;;4.89;100.00
39891;BME280;25564;53.312;9.790;2023-01-29T12:07:30;101496.75;;;4.94;100.00
39891;BME280;25564;53.312;9.790;2023-01-29T12:10:02;101494.09;;;4.92;100.00
39891;BME280;25564;53.312;9.790;2023-01-29T12:12:40;101487.94;;;4.92;100.00
39891;BME280;25564;53.312;9.790;2023-01-29T12:17:52;101459.88;;;4.91;100.00
39891;BME280;25564;53.312;9.790;2023-01-29T12:20:34;101475.72;;;4.94;100.00
39891;BME280;25564;53.312;9.790;2023-01-29T12:23:23;101459.09;;;4.97;100.00
39891;BME280;25564;53.312;9.790;2023-01-29T12:28:49;101473.28;;;5.06;100.00
39891;BME280;25564;53.312;9.790;2023-01-29T12:31:34;101474.16;;;5.05;100.00
39891;BME280;25564;53.312;9.790;2023-01-29T12:34:21;101430.00;;;4.87;100.00
39891;BME280;25564;53.312;9.790;2023-01-29T12:37:10;101448.56;;;4.97;100.00
39891;BME280;25564;53.312;9.790;2023-01-29T12:39:43;101431.75;;;4.87;100.00
39891;BME280;25564;53.312;9.790;2023-01-29T12:42:20;101430.06;;;4.90;100.00
39891;BME280;25564;53.312;9.790;2023-01-29T12:44:58;101440.66;;;4.95;100.00
39891;BME280;25564;53.312;9.790;2023-01-29T12:47:39;101429.03;;;4.82;100.00
39891;BME280;25564;53.312;9.790;2023-01-29T12:50:25;101438.75;;;4.86;100.00
39891;BME280;25564;53.312;9.790;2023-01-29T12:53:04;101399.81;;;4.64;100.00
39891;BME280;25564;53.312;9.790;2023-01-29T12:58:15;101440.56;;;4.89;100.00
39891;BME280;25564;53.312;9.790;2023-01-29T13:00:49;101422.94;;;4.85;100.00
39891;BME280;25564;53.312;9.790;2023-01-29T13:03:24;101421.28;;;4.90;100.00
39891;BME280;25564;53.312;9.790;2023-01-29T13:06:00;101390.50;;;4.83;100.00
39891;BME280;25564;53.312;9.790;2023-01-29T13:08:43;101402.06;;;4.94;100.00
39891;BME280;25564;53.312;9.790;2023-01-29T13:11:28;101402.13;;;4.97;100.00
39891;BME280;25564;53.312;9.790;2023-01-29T13:14:15;101377.50;;;4.92;100.00
39891;BME280;25564;53.312;9.790;2023-01-29T13:16:52;101391.66;;;5.00;100.00
39891;BME280;25564;53.312;9.790;2023-01-29T13:19:33;101382.91;;;5.01;100.00
39891;BME280;25564;53.312;9.790;2023-01-29T13:22:19;101378.56;;;5.05;100.00
39891;BME280;25564;53.312;9.790;2023-01-29T13:24:53;101375.03;;;5.03;100.00
39891;BME280;25564;53.312;9.790;2023-01-29T13:27:35;101361.66;;;4.89;100.00
39891;BME280;25564;53.312;9.790;2023-01-29T13:30:19;101365.25;;;4.94;100.00
39891;BME280;25564;53.312;9.790;2023-01-29T13:32:55;101360.88;;;4.95;100.00
39891;BME280;25564;53.312;9.790;2023-01-29T13:35:40;101346.75;;;4.88;100.00
39891;BME280;25564;53.312;9.790;2023-01-29T13:38:28;101360.06;;;4.99;100.00
39891;BME280;25564;53.312;9.790;2023-01-29T13:41:05;101361.81;;;4.98;100.00
39891;BME280;25564;53.312;9.790;2023-01-29T13:43:40;101352.16;;;4.97;100.00
39891;BME280;25564;53.312;9.790;2023-01-29T13:46:15;101350.41;;;4.98;100.00
39891;BME280;25564;53.312;9.790;2023-01-29T13:48:50;101361.03;;;5.05;100.00
39891;BME280;25564;53.312;9.790;2023-01-29T13:51:30;101326.56;;;4.87;100.00
39891;BME280;25564;53.312;9.790;2023-01-29T13:54:12;101341.66;;;5.00;100.00
39891;BME280;25564;53.312;9.790;2023-01-29T13:57:00;101335.38;;;4.90;100.00
39891;BME280;25564;53.312;9.790;2023-01-29T13:59:52;101338.81;;;4.85;100.00
39891;BME280;25564;53.312;9.790;2023-01-29T14:02:29;101331.69;;;4.78;100.00
39891;BME280;25564;53.312;9.790;2023-01-29T14:10:43;101313.09;;;4.66;100.00
39891;BME280;25564;53.312;9.790;2023-01-29T14:18:31;101324.50;;;4.68;100.00
39891;BME280;25564;53.312;9.790;2023-01-29T14:21:24;101310.34;;;4.59;100.00
39891;BME280;25564;53.312;9.790;2023-01-29T14:24:18;101305.91;;;4.55;100.00
39891;BME280;25564;53.312;9.790;2023-01-29T14:26:54;101299.75;;;4.53;100.00
39891;BME280;25564;53.312;9.790;2023-01-29T14:29:30;101298.78;;;4.48;100.00
39891;BME280;25564;53.312;9.790;2023-01-29T14:34:46;101296.00;;;4.39;100.00
39891;BME280;25564;53.312;9.790;2023-01-29T14:37:24;101296.84;;;4.38;100.00
39891;BME280;25564;53.312;9.790;2023-01-29T14:40:14;101291.56;;;4.37;100.00
39891;BME280;25564;53.312;9.790;2023-01-29T14:43:00;101293.28;;;4.35;100.00
39891;BME280;25564;53.312;9.790;2023-01-29T14:50:50;101250.88;;;4.10;100.00
39891;BME280;25564;53.312;9.790;2023-01-29T14:53:28;101251.88;;;4.20;100.00
39891;BME280;25564;53.312;9.790;2023-01-29T14:56:10;101273.97;;;4.31;100.00
39891;BME280;25564;53.312;9.790;2023-01-29T14:58:49;101269.53;;;4.27;100.00
39891;BME280;25564;53.312;9.790;2023-01-29T15:01:25;101275.63;;;4.26;100.00
39891;BME280;25564;53.312;9.790;2023-01-29T15:06:54;101268.56;;;4.22;100.00
39891;BME280;25564;53.312;9.790;2023-01-29T15:09:44;101265.94;;;4.22;100.00